Time;durP1;ratioP1;P1;durP2;ratioP2;P2;SDS_P1;SDS_P2;PMS_P1;PMS_P2;Temp;Humidity;BMP_temperature;BMP_pressure;BME280_temperature;BME280_humidity;BME280_pressure;Samples;Min_cycle;Max_cycle;Signal;HPM_P1;HPM_P2
2023/07/05 00:00:28;;;;;;;6.28;3.10;;;;;;;15.58;100.00;93672.25;5048957;28;20033;-60
2023/07/05 00:02:55;;;;;;;5.25;2.80;;;;;;;15.58;100.00;93664.72;5048252;28;20064;-61
2023/07/05 00:05:22;;;;;;;4.75;2.70;;;;;;;15.31;100.00;93661.78;5049033;28;20048;-60
2023/07/05 00:07:49;;;;;;;4.10;2.92;;;;;;;15.37;100.00;93669.06;5048577;28;20055;-59
2023/07/05 00:10:15;;;;;;;10.70;7.17;;;;;;;15.47;100.00;93669.09;5049123;28;20114;-61
2023/07/05 00:12:42;;;;;;;7.40;4.63;;;;;;;15.50;100.00;93671.75;5048422;28;20490;-58
2023/07/05 00:15:09;;;;;;;18.20;10.63;;;;;;;15.57;100.00;93670.69;5048151;28;20057;-58
2023/07/05 00:17:36;;;;;;;8.75;5.75;;;;;;;15.68;100.00;93675.81;5048117;28;20041;-60
2023/07/05 00:20:06;;;;;;;5.55;3.30;;;;;;;15.63;100.00;93679.16;5048613;28;20279;-61
2023/07/05 00:22:33;;;;;;;4.20;2.90;;;;;;;15.40;100.00;93683.97;5048358;28;20041;-60
2023/07/05 00:25:01;;;;;;;4.15;2.83;;;;;;;15.00;100.00;93681.88;5048585;28;20056;-59
2023/07/05 00:27:28;;;;;;;5.47;2.85;;;;;;;14.83;100.00;93678.53;5033252;28;20747;-60
2023/07/05 00:29:55;;;;;;;4.45;2.90;;;;;;;14.97;100.00;93682.78;5047694;28;20647;-58
2023/07/05 00:32:22;;;;;;;4.65;2.88;;;;;;;15.03;100.00;93680.19;5034415;28;20383;-59
2023/07/05 00:34:49;;;;;;;5.03;3.27;;;;;;;15.25;100.00;93674.66;5040408;28;20049;-58
2023/07/05 00:37:16;;;;;;;6.05;3.22;;;;;;;15.29;100.00;93683.59;5035557;28;20429;-60
2023/07/05 00:39:42;;;;;;;20.25;13.65;;;;;;;15.40;100.00;93689.50;5047574;28;20041;-58
2023/07/05 00:42:09;;;;;;;6.28;4.43;;;;;;;15.39;100.00;93685.19;5048291;28;20095;-58
2023/07/05 00:44:36;;;;;;;5.18;3.30;;;;;;;15.26;100.00;93687.28;5047627;28;20033;-62
2023/07/05 00:47:24;;;;;;;5.43;3.00;;;;;;;14.95;100.00;93680.47;5048239;28;20045;-57
2023/07/05 00:49:51;;;;;;;5.00;3.17;;;;;;;15.10;100.00;93679.94;5047776;28;20064;-58
2023/07/05 00:52:18;;;;;;;5.55;3.22;;;;;;;15.25;100.00;93685.72;5048136;28;20051;-58
2023/07/05 00:54:52;;;;;;;4.97;3.50;;;;;;;15.29;100.00;93700.19;5047502;28;20037;-58
2023/07/05 00:57:24;;;;;;;7.18;3.50;;;;;;;15.41;100.00;93698.56;5048328;28;20055;-59
2023/07/05 00:59:57;;;;;;;6.07;3.60;;;;;;;15.32;100.00;93700.06;5047761;28;20041;-57
2023/07/05 01:02:24;;;;;;;5.15;3.65;;;;;;;15.30;100.00;93704.50;5048309;28;20044;-60
2023/07/05 01:04:51;;;;;;;6.45;4.00;;;;;;;15.26;100.00;93695.56;5047391;28;20045;-57
2023/07/05 01:07:18;;;;;;;6.95;3.50;;;;;;;14.93;100.00;93685.69;5048402;28;20578;-57
2023/07/05 01:09:48;;;;;;;6.53;3.83;;;;;;;14.76;100.00;93673.25;5047561;28;20051;-58
2023/07/05 01:12:38;;;;;;;5.23;3.57;;;;;;;14.97;100.00;93671.75;5048482;28;20049;-57
2023/07/05 01:15:13;;;;;;;7.68;4.60;;;;;;;15.10;100.00;93675.19;4992519;28;20365;-60
2023/07/05 01:17:54;;;;;;;6.47;3.80;;;;;;;15.06;100.00;93660.72;5047578;28;20045;-57
2023/07/05 01:20:24;;;;;;;6.57;4.35;;;;;;;14.96;100.00;93664.66;5047968;28;20045;-60
2023/07/05 01:23:13;;;;;;;6.95;3.83;;;;;;;15.06;100.00;93663.50;5047664;28;20569;-59
2023/07/05 01:26:16;;;;;;;7.43;4.20;;;;;;;14.89;100.00;93657.41;5049860;28;20048;-58
2023/07/05 01:29:09;;;;;;;6.13;4.03;;;;;;;14.85;100.00;93659.53;5051398;28;20056;-59
2023/07/05 01:32:00;;;;;;;6.75;3.90;;;;;;;14.78;100.00;93657.00;5051366;28;20068;-58
2023/07/05 01:34:38;;;;;;;6.15;3.83;;;;;;;14.75;100.00;93655.16;5051901;28;20045;-59
2023/07/05 01:37:10;;;;;;;6.72;3.80;;;;;;;14.66;100.00;93655.06;5035651;28;20059;-60
2023/07/05 01:39:36;;;;;;;6.33;3.93;;;;;;;14.81;100.00;93658.09;5036704;28;20071;-57
2023/07/05 01:42:05;;;;;;;6.55;4.03;;;;;;;14.85;100.00;93658.72;5046513;28;20064;-57
2023/07/05 01:44:32;;;;;;;5.85;3.70;;;;;;;14.97;100.00;93657.94;5046461;28;20041;-58
2023/07/05 01:47:27;;;;;;;6.68;3.88;;;;;;;15.07;100.00;93654.00;5042237;28;20449;-58
2023/07/05 01:50:08;;;;;;;6.18;4.05;;;;;;;15.14;100.00;93652.97;5051281;28;20045;-58
2023/07/05 01:52:44;;;;;;;6.63;3.93;;;;;;;15.08;100.00;93646.47;5050969;28;20041;-58
2023/07/05 01:55:20;;;;;;;7.03;3.92;;;;;;;15.17;100.00;93649.28;5051362;28;20048;-58
2023/07/05 01:57:58;;;;;;;6.10;4.10;;;;;;;15.20;100.00;93656.69;5050995;28;20049;-58
2023/07/05 02:00:29;;;;;;;5.88;4.25;;;;;;;15.22;100.00;93659.00;5051510;28;20052;-58
2023/07/05 02:03:01;;;;;;;5.40;3.70;;;;;;;15.27;100.00;93667.47;5050604;28;20059;-58
2023/07/05 02:05:30;;;;;;;5.67;3.90;;;;;;;15.21;100.00;93679.56;5051907;28;20053;-58
2023/07/05 02:07:59;;;;;;;6.35;3.90;;;;;;;14.99;100.00;93705.22;5050614;28;20798;-57
2023/07/05 02:10:27;;;;;;;8.77;4.10;;;;;;;14.78;100.00;93729.59;5051261;28;20062;-57
2023/07/05 02:12:56;;;;;;;7.65;4.18;;;;;;;14.54;100.00;93754.03;5050879;28;20409;-60
2023/07/05 02:15:23;;;;;;;7.65;4.05;;;;;;;14.65;100.00;93733.63;5046083;28;20468;-57
2023/07/05 02:17:50;;;;;;;7.47;4.63;;;;;;;14.34;100.00;93728.69;5043062;28;20080;-57
2023/07/05 02:20:17;;;;;;;6.95;4.00;;;;;;;14.27;100.00;93739.97;5050922;28;20043;-57
2023/07/05 02:22:44;;;;;;;8.30;4.50;;;;;;;14.41;100.00;93733.19;5050532;28;20041;-58
2023/07/05 02:25:10;;;;;;;7.65;4.32;;;;;;;14.60;100.00;93742.47;5050967;28;20387;-58
2023/07/05 02:27:37;;;;;;;8.27;4.13;;;;;;;14.72;100.00;93756.25;5032412;28;20045;-59
2023/07/05 02:30:05;;;;;;;7.07;4.23;;;;;;;14.73;100.00;93768.09;5050771;28;20414;-57
2023/07/05 02:32:32;;;;;;;9.68;4.50;;;;;;;14.88;100.00;93769.13;5050426;28;20448;-59
2023/07/05 02:35:01;;;;;;;7.28;4.30;;;;;;;14.87;100.00;93758.50;5050906;28;20045;-57
2023/07/05 02:37:30;;;;;;;5.90;3.60;;;;;;;15.06;100.00;93760.22;5038990;28;20398;-57
2023/07/05 02:39:57;;;;;;;7.45;4.20;;;;;;;15.09;100.00;93762.09;5038886;28;20729;-57
2023/07/05 02:42:24;;;;;;;6.00;3.40;;;;;;;15.11;100.00;93767.16;5041462;28;20042;-58
2023/07/05 02:44:51;;;;;;;7.55;3.30;;;;;;;15.18;100.00;93762.16;5046771;28;20045;-57
2023/07/05 02:47:19;;;;;;;6.70;3.40;;;;;;;15.22;100.00;93742.69;5050197;28;20624;-59
2023/07/05 02:49:46;;;;;;;6.35;3.80;;;;;;;14.83;100.00;93719.19;5050017;28;20123;-59
2023/07/05 02:52:13;;;;;;;7.80;4.10;;;;;;;14.75;100.00;93716.69;5050358;28;20140;-58
2023/07/05 02:54:40;;;;;;;6.50;3.83;;;;;;;14.88;100.00;93711.09;5032047;28;20063;-59
2023/07/05 02:57:07;;;;;;;6.68;3.95;;;;;;;14.87;100.00;93717.06;5050443;28;20093;-57
2023/07/05 02:59:35;;;;;;;5.78;3.78;;;;;;;14.94;100.00;93722.38;5049755;28;20476;-58
2023/07/05 03:02:02;;;;;;;7.82;3.72;;;;;;;14.99;100.00;93730.09;5039980;28;20041;-57
2023/07/05 03:04:29;;;;;;;7.25;4.03;;;;;;;15.02;100.00;93731.94;5047540;28;20053;-60
2023/07/05 03:06:56;;;;;;;7.07;4.07;;;;;;;14.66;100.00;93713.06;5028148;28;20888;-58
2023/07/05 03:09:22;;;;;;;5.47;3.35;;;;;;;14.56;100.00;93706.69;5047770;28;20052;-60
2023/07/05 03:11:49;;;;;;;5.65;3.63;;;;;;;14.79;100.00;93719.34;5049595;28;20117;-58
2023/07/05 03:14:16;;;;;;;7.45;3.50;;;;;;;14.92;100.00;93703.47;5050255;28;20041;-58
2023/07/05 03:16:43;;;;;;;6.55;3.80;;;;;;;14.95;100.00;93712.84;5049297;28;20059;-58
2023/07/05 03:19:11;;;;;;;6.80;3.97;;;;;;;14.92;100.00;93714.53;5050020;28;20048;-59
2023/07/05 03:21:38;;;;;;;6.43;3.35;;;;;;;14.83;100.00;93705.38;5049340;28;20601;-60
2023/07/05 03:24:05;;;;;;;6.65;3.40;;;;;;;14.81;100.00;93705.06;5029095;28;20517;-58
2023/07/05 03:26:31;;;;;;;7.07;3.70;;;;;;;14.78;100.00;93701.22;5046466;28;20045;-58
2023/07/05 03:28:58;;;;;;;6.05;3.60;;;;;;;14.73;100.00;93704.56;5049627;28;20377;-57
2023/07/05 03:31:25;;;;;;;7.27;3.33;;;;;;;14.69;100.00;93701.13;5049578;28;20044;-57
2023/07/05 03:33:53;;;;;;;5.88;3.42;;;;;;;14.65;100.00;93701.25;5049063;28;20424;-60
2023/07/05 03:36:20;;;;;;;4.95;3.30;;;;;;;14.68;100.00;93710.63;5040415;28;20657;-59
2023/07/05 03:38:51;;;;;;;5.75;3.15;;;;;;;14.65;100.00;93712.31;5029641;28;20476;-59
2023/07/05 03:41:23;;;;;;;6.95;3.40;;;;;;;14.73;100.00;93707.31;5049084;28;20045;-58
2023/07/05 03:44:00;;;;;;;8.57;3.97;;;;;;;14.77;100.00;93719.78;5048998;28;20048;-57
2023/07/05 03:46:28;;;;;;;5.45;3.47;;;;;;;14.77;100.00;93724.53;5049665;28;20044;-58
2023/07/05 03:48:55;;;;;;;7.38;3.00;;;;;;;14.73;100.00;93723.88;5047288;28;20712;-57
2023/07/05 03:51:22;;;;;;;7.43;2.92;;;;;;;14.70;100.00;93725.53;5049322;28;20040;-58
2023/07/05 03:53:52;;;;;;;5.65;3.20;;;;;;;14.64;100.00;93718.28;5048635;28;20063;-60
2023/07/05 03:56:20;;;;;;;6.83;3.07;;;;;;;14.69;100.00;93724.00;5049204;28;20051;-57
2023/07/05 03:58:46;;;;;;;4.80;3.20;;;;;;;14.77;100.00;93730.84;5048663;28;20045;-58
2023/07/05 04:01:19;;;;;;;5.18;3.03;;;;;;;14.70;100.00;93719.25;5048979;28;20465;-58
2023/07/05 04:03:48;;;;;;;6.47;3.10;;;;;;;14.73;100.00;93716.38;5048779;28;20037;-57
2023/07/05 04:06:16;;;;;;;5.18;3.00;;;;;;;14.80;100.00;93704.28;5040988;28;20048;-58
2023/07/05 04:08:43;;;;;;;5.30;3.40;;;;;;;14.80;100.00;93709.06;5043928;28;20053;-57
2023/07/05 04:11:10;;;;;;;5.63;3.20;;;;;;;14.76;100.00;93709.94;5048813;28;20051;-57
2023/07/05 04:13:37;;;;;;;4.93;3.20;;;;;;;14.80;100.00;93714.56;5048701;28;20041;-58
2023/07/05 04:16:08;;;;;;;5.10;3.10;;;;;;;14.85;100.00;93703.72;5048714;28;20049;-58
2023/07/05 04:18:37;;;;;;;5.43;3.40;;;;;;;14.97;100.00;93702.91;5048271;28;20043;-58
2023/07/05 04:21:04;;;;;;;5.50;3.20;;;;;;;15.06;100.00;93707.72;5048547;28;20043;-57
2023/07/05 04:23:31;;;;;;;6.15;3.30;;;;;;;15.20;100.00;93713.97;5048212;28;20106;-60
2023/07/05 04:26:02;;;;;;;5.25;2.90;;;;;;;15.25;100.00;93707.84;5048629;28;20055;-58
2023/07/05 04:28:30;;;;;;;5.50;2.90;;;;;;;15.45;100.00;93713.78;5048481;28;20063;-58
2023/07/05 04:30:57;;;;;;;6.18;4.13;;;;;;;15.68;100.00;93717.31;5048359;28;20041;-58
2023/07/05 04:33:25;;;;;;;4.87;3.00;;;;;;;15.66;100.00;93719.78;5048574;28;20041;-59
2023/07/05 04:35:54;;;;;;;11.23;3.60;;;;;;;15.44;100.00;93720.56;5047992;28;20032;-59
2023/07/05 04:38:21;;;;;;;5.20;3.53;;;;;;;15.27;100.00;93717.25;5048504;28;20060;-61
2023/07/05 04:40:48;;;;;;;8.13;3.55;;;;;;;15.22;100.00;93730.88;5047792;28;20045;-58
2023/07/05 04:43:15;;;;;;;6.00;3.70;;;;;;;15.41;100.00;93729.75;5048412;28;20036;-60
2023/07/05 04:45:48;;;;;;;6.70;3.90;;;;;;;15.51;100.00;93727.81;5040995;28;20056;-58
2023/07/05 04:48:16;;;;;;;6.53;3.80;;;;;;;15.46;100.00;93729.19;5042735;28;20386;-59
2023/07/05 04:50:44;;;;;;;6.13;3.70;;;;;;;15.42;100.00;93728.53;5047665;28;20053;-58
2023/07/05 04:53:10;;;;;;;6.30;3.50;;;;;;;15.38;100.00;93734.19;5047935;28;20037;-60
2023/07/05 04:55:44;;;;;;;5.82;3.40;;;;;;;15.35;100.00;93739.84;5047575;28;20087;-59
2023/07/05 04:58:11;;;;;;;7.67;3.37;;;;;;;15.30;100.00;93743.22;5048034;28;20056;-58
2023/07/05 05:00:37;;;;;;;5.38;3.47;;;;;;;15.39;100.00;93743.25;5043326;28;20100;-58
2023/07/05 05:03:04;;;;;;;5.72;3.20;;;;;;;15.34;100.00;93738.31;5028390;28;20050;-58
2023/07/05 05:05:31;;;;;;;6.63;3.47;;;;;;;15.35;100.00;93732.34;5016520;28;20575;-59
2023/07/05 05:07:58;;;;;;;4.90;3.33;;;;;;;15.54;100.00;93729.69;5038626;28;20078;-58
2023/07/05 05:10:25;;;;;;;4.93;3.07;;;;;;;15.72;100.00;93723.47;5048133;28;20162;-57
2023/07/05 05:12:51;;;;;;;4.75;3.00;;;;;;;15.89;100.00;93729.56;5047333;28;20419;-59
2023/07/05 05:15:18;;;;;;;5.78;2.90;;;;;;;16.08;100.00;93719.38;5047962;28;20037;-58
2023/07/05 05:17:45;;;;;;;4.28;2.60;;;;;;;16.29;100.00;93715.72;5047372;28;20650;-60
2023/07/05 05:20:12;;;;;;;4.80;2.85;;;;;;;16.49;100.00;93726.38;5047641;28;20041;-59
2023/07/05 05:22:38;;;;;;;4.00;2.80;;;;;;;17.00;100.00;93722.31;5047560;28;20051;-58
2023/07/05 05:25:05;;;;;;;4.90;2.80;;;;;;;18.56;100.00;93701.66;5026688;28;20052;-59
2023/07/05 05:27:32;;;;;;;4.53;2.70;;;;;;;21.27;100.00;93694.16;5038590;28;20110;-59
2023/07/05 05:29:59;;;;;;;4.70;2.80;;;;;;;18.75;100.00;93702.31;5030044;28;20609;-60
2023/07/05 05:32:27;;;;;;;4.03;2.75;;;;;;;18.50;100.00;93703.56;5029631;28;20067;-60
2023/07/05 05:34:54;;;;;;;3.87;2.67;;;;;;;18.49;100.00;93699.25;5047718;28;20086;-59
2023/07/05 05:37:21;;;;;;;3.53;2.45;;;;;;;18.80;100.00;93694.59;5059254;28;20037;-58
2023/07/05 05:39:47;;;;;;;7.43;3.08;;;;;;;18.19;100.00;93703.09;5036432;28;20044;-59
2023/07/05 05:42:14;;;;;;;4.18;2.80;;;;;;;18.15;100.00;93697.75;5034423;28;20099;-62
2023/07/05 05:44:41;;;;;;;6.13;3.10;;;;;;;19.08;100.00;93695.16;5047335;28;20063;-61
2023/07/05 05:47:08;;;;;;;4.13;2.60;;;;;;;19.98;100.00;93690.41;5029761;28;20070;-60
2023/07/05 05:49:35;;;;;;;4.70;2.80;;;;;;;21.53;100.00;93680.25;5047394;28;20075;-61
2023/07/05 05:52:02;;;;;;;4.07;2.55;;;;;;;21.99;100.00;93673.03;5047824;28;20037;-59
2023/07/05 05:54:29;;;;;;;4.03;2.83;;;;;;;21.83;100.00;93683.59;5038787;28;20550;-60
2023/07/05 05:56:55;;;;;;;5.45;2.80;;;;;;;22.84;100.00;93672.31;5046939;28;21346;-61
2023/07/05 05:59:22;;;;;;;4.70;2.77;;;;;;;23.52;100.00;93678.16;5053893;28;20037;-61
2023/07/05 06:01:50;;;;;;;4.38;2.80;;;;;;;23.52;100.00;93667.72;5033003;28;20958;-61
2023/07/05 06:04:16;;;;;;;4.35;2.80;;;;;;;22.12;100.00;93665.78;5027969;28;20486;-62
2023/07/05 06:06:43;;;;;;;4.50;2.92;;;;;;;22.46;100.00;93663.22;5052035;28;20422;-60
2023/07/05 06:09:10;;;;;;;4.35;3.03;;;;;;;23.58;100.00;93664.16;5054635;28;20049;-61
2023/07/05 06:11:37;;;;;;;4.70;2.90;;;;;;;24.00;100.00;93662.44;5047339;28;20444;-60
2023/07/05 06:14:03;;;;;;;6.50;3.08;;;;;;;24.77;94.97;93671.28;5029977;28;20133;-61
2023/07/05 06:16:30;;;;;;;3.78;2.67;;;;;;;23.56;100.00;93677.91;5048895;28;20049;-64
2023/07/05 06:18:57;;;;;;;3.97;2.78;;;;;;;23.61;100.00;93675.13;5059780;28;20041;-60
2023/07/05 06:21:24;;;;;;;5.07;2.80;;;;;;;23.58;100.00;93676.13;5032910;28;20169;-61
2023/07/05 06:23:51;;;;;;;4.73;3.10;;;;;;;24.47;98.27;93679.50;5050371;28;20045;-60
2023/07/05 06:26:19;;;;;;;4.90;2.78;;;;;;;25.32;93.19;93682.84;5036178;28;20044;-61
2023/07/05 06:28:46;;;;;;;4.82;2.90;;;;;;;26.05;84.46;93679.56;5047270;28;20049;-61
2023/07/05 06:31:13;;;;;;;4.85;2.72;;;;;;;23.37;100.00;93688.81;5045405;28;20818;-61
2023/07/05 06:33:39;;;;;;;5.63;2.97;;;;;;;23.08;100.00;93691.53;5053489;28;20049;-61
2023/07/05 06:36:07;;;;;;;4.93;2.87;;;;;;;20.96;100.00;93701.16;5049935;28;20049;-60
2023/07/05 06:38:35;;;;;;;4.57;3.08;;;;;;;20.33;100.00;93698.81;5049582;28;20041;-59
2023/07/05 06:41:02;;;;;;;4.88;3.00;;;;;;;19.88;100.00;93700.88;5051126;28;20043;-60
2023/07/05 06:43:29;;;;;;;5.00;2.90;;;;;;;22.56;100.00;93690.97;5050642;28;20045;-60
2023/07/05 06:45:56;;;;;;;6.07;3.30;;;;;;;22.96;100.00;93691.94;5049974;28;20838;-63
2023/07/05 06:48:23;;;;;;;4.80;2.80;;;;;;;21.61;100.00;93692.53;5050460;28;20037;-62
2023/07/05 06:50:55;;;;;;;6.63;2.83;;;;;;;20.06;100.00;93708.25;5050000;28;20048;-60
2023/07/05 06:53:23;;;;;;;5.45;3.30;;;;;;;19.76;100.00;93708.31;5050741;28;20177;-60
2023/07/05 06:56:10;;;;;;;5.28;2.90;;;;;;;19.56;100.00;93725.63;5049452;28;20115;-60
2023/07/05 06:58:37;;;;;;;7.15;3.22;;;;;;;19.23;100.00;93718.19;5049873;28;20052;-62
2023/07/05 07:01:04;;;;;;;5.70;3.20;;;;;;;19.48;100.00;93744.72;5044401;28;20072;-60
2023/07/05 07:03:31;;;;;;;5.53;3.15;;;;;;;19.42;100.00;93743.06;5030093;28;20049;-60
2023/07/05 07:05:58;;;;;;;5.93;2.83;;;;;;;18.96;100.00;93747.75;5046868;28;20575;-59
2023/07/05 07:08:31;;;;;;;5.15;2.72;;;;;;;19.05;100.00;93758.03;5050478;28;20029;-59
2023/07/05 07:11:02;;;;;;;4.63;2.80;;;;;;;18.67;100.00;93759.53;5049347;28;21555;-60
2023/07/05 07:13:30;;;;;;;3.87;2.60;;;;;;;18.70;100.00;93758.56;5050265;28;20362;-59
2023/07/05 07:16:05;;;;;;;4.95;2.35;;;;;;;18.15;100.00;93767.16;5049506;28;20848;-60
2023/07/05 07:18:35;;;;;;;5.13;2.50;;;;;;;18.14;100.00;93763.59;5049874;28;20049;-59
2023/07/05 07:21:06;;;;;;;4.53;2.40;;;;;;;18.31;100.00;93754.91;5050123;28;20045;-60
2023/07/05 07:23:33;;;;;;;4.60;2.60;;;;;;;18.16;100.00;93752.78;5049595;28;20533;-59
2023/07/05 07:26:06;;;;;;;5.10;2.33;;;;;;;18.44;100.00;93754.69;5049813;28;20098;-61
2023/07/05 07:28:33;;;;;;;3.20;2.08;;;;;;;19.21;100.00;93742.19;5028357;28;20042;-59
2023/07/05 07:31:09;;;;;;;4.55;2.50;;;;;;;20.04;100.00;93746.97;5045353;28;20535;-59
2023/07/05 07:33:36;;;;;;;4.72;2.22;;;;;;;21.45;100.00;93749.72;5049785;28;20067;-60
2023/07/05 07:36:17;;;;;;;3.15;2.10;;;;;;;20.85;100.00;93756.84;5049981;28;20433;-61
2023/07/05 07:38:45;;;;;;;4.33;2.20;;;;;;;21.89;100.00;93747.88;5049667;28;20045;-60
2023/07/05 07:41:20;;;;;;;3.92;2.10;;;;;;;21.17;100.00;93745.81;5049748;28;20036;-59
2023/07/05 07:43:50;;;;;;;4.25;2.30;;;;;;;20.61;100.00;93752.19;5028363;28;20042;-60
2023/07/05 07:46:20;;;;;;;4.00;2.30;;;;;;;19.69;100.00;93756.72;5043597;28;20067;-63
2023/07/05 07:48:49;;;;;;;3.70;2.28;;;;;;;19.55;100.00;93761.03;5049133;28;20048;-60
2023/07/05 07:51:17;;;;;;;4.90;2.20;;;;;;;19.20;100.00;93763.66;5049526;28;20049;-59
2023/07/05 07:54:04;;;;;;;3.00;1.80;;;;;;;18.85;100.00;93753.09;5048661;28;20094;-59
2023/07/05 07:56:31;;;;;;;3.10;1.70;;;;;;;18.24;100.00;93753.22;5048883;28;20052;-59
2023/07/05 07:58:59;;;;;;;4.03;2.10;;;;;;;18.21;100.00;93762.53;5049685;28;20409;-61
2023/07/05 08:01:27;;;;;;;3.67;1.77;;;;;;;18.50;100.00;93753.56;5039499;28;20072;-62
2023/07/05 08:03:56;;;;;;;2.83;1.80;;;;;;;18.42;100.00;93751.63;5031036;28;20053;-60
2023/07/05 08:06:33;;;;;;;3.60;1.83;;;;;;;18.94;100.00;93746.72;5049117;28;20051;-62
2023/07/05 08:09:00;;;;;;;5.28;1.80;;;;;;;19.23;100.00;93759.91;5048522;28;20853;-61
2023/07/05 08:11:27;;;;;;;2.75;1.50;;;;;;;20.68;100.00;93759.38;5049442;28;20041;-61
2023/07/05 08:13:54;;;;;;;2.75;1.65;;;;;;;21.22;100.00;93773.03;5048659;28;20045;-63
2023/07/05 08:16:21;;;;;;;3.20;1.73;;;;;;;22.92;100.00;93770.56;5031597;28;20040;-61
2023/07/05 08:18:48;;;;;;;3.13;1.90;;;;;;;22.15;100.00;93767.41;5048461;28;20381;-61
2023/07/05 08:21:15;;;;;;;4.10;1.58;;;;;;;21.50;100.00;93757.38;5049114;28;20413;-61
2023/07/05 08:23:45;;;;;;;4.85;1.70;;;;;;;20.81;100.00;93767.44;5048400;28;20084;-61
2023/07/05 08:26:13;;;;;;;4.53;1.63;;;;;;;20.32;100.00;93770.50;5035860;28;20049;-60
2023/07/05 08:28:39;;;;;;;2.97;1.47;;;;;;;20.71;100.00;93775.16;5036355;28;20103;-61
2023/07/05 08:31:07;;;;;;;2.80;1.50;;;;;;;20.37;100.00;93782.22;5010221;28;20037;-62
2023/07/05 08:33:36;;;;;;;2.67;1.30;;;;;;;19.80;100.00;93783.28;5041490;28;20033;-62
2023/07/05 08:36:03;;;;;;;3.20;1.63;;;;;;;20.88;100.00;93778.16;5048347;28;20052;-61
2023/07/05 08:38:31;;;;;;;3.10;1.42;;;;;;;24.42;100.00;93778.41;5048470;28;20037;-64
2023/07/05 08:41:33;;;;;;;3.60;1.50;;;;;;;24.43;92.67;93783.53;5048846;28;20509;-61
2023/07/05 08:44:16;;;;;;;2.45;1.10;;;;;;;25.94;82.00;93785.72;5033112;28;20750;-61
2023/07/05 08:46:47;;;;;;;2.03;1.10;;;;;;;26.44;82.59;93785.41;5040080;28;20394;-61
2023/07/05 08:49:26;;;;;;;2.60;1.00;;;;;;;27.18;73.98;93781.94;5044475;28;20033;-60
2023/07/05 08:51:56;;;;;;;3.83;1.00;;;;;;;26.16;76.13;93790.47;5048534;28;20043;-60
2023/07/05 08:54:31;;;;;;;2.93;0.80;;;;;;;26.83;75.22;93794.84;5035239;28;20417;-59
2023/07/05 08:57:08;;;;;;;2.15;0.80;;;;;;;25.57;74.66;93801.72;5047526;28;20041;-60
2023/07/05 08:59:47;;;;;;;2.38;0.90;;;;;;;26.26;71.27;93798.06;5043865;28;20471;-61
2023/07/05 09:02:19;;;;;;;2.25;1.00;;;;;;;26.85;65.88;93803.53;5041400;28;20530;-60
2023/07/05 09:04:49;;;;;;;4.18;0.95;;;;;;;24.61;73.62;93801.91;5048147;28;20041;-60
2023/07/05 09:07:37;;;;;;;3.50;1.00;;;;;;;23.45;86.57;93808.25;5048616;28;20040;-59
2023/07/05 09:10:24;;;;;;;2.50;0.90;;;;;;;25.12;77.10;93816.66;5047339;28;20045;-59
2023/07/05 09:13:12;;;;;;;2.60;0.90;;;;;;;23.83;84.34;93817.34;5048114;28;20047;-61
2023/07/05 09:15:48;;;;;;;3.22;0.82;;;;;;;23.58;83.71;93818.22;5036861;28;20037;-59
2023/07/05 09:18:24;;;;;;;5.50;1.25;;;;;;;23.39;86.23;93827.06;5040814;28;20043;-61
2023/07/05 09:20:55;;;;;;;3.57;1.20;;;;;;;24.37;81.09;93826.84;5047744;28;20390;-59
2023/07/05 09:23:41;;;;;;;2.30;0.80;;;;;;;27.04;65.60;93826.88;5048103;28;20453;-61
2023/07/05 09:26:18;;;;;;;2.00;1.00;;;;;;;26.05;66.39;93827.84;5047436;28;22347;-62
2023/07/05 09:28:54;;;;;;;2.83;1.10;;;;;;;26.35;65.58;93824.38;5047762;28;20041;-64
2023/07/05 09:31:23;;;;;;;1.80;1.00;;;;;;;26.71;64.22;93819.50;5048229;28;20047;-61
2023/07/05 09:34:17;;;;;;;2.13;1.00;;;;;;;27.88;58.73;93825.25;5047530;28;20049;-60
2023/07/05 09:36:46;;;;;;;2.28;1.10;;;;;;;27.61;56.34;93840.44;5026408;28;20045;-60
2023/07/05 09:39:30;;;;;;;2.67;1.13;;;;;;;28.15;50.33;93827.47;5034973;28;20051;-60
2023/07/05 09:42:00;;;;;;;2.17;0.95;;;;;;;28.44;50.16;93818.09;5047071;28;20053;-60
2023/07/05 09:44:29;;;;;;;3.13;1.10;;;;;;;27.25;53.67;93818.03;5047772;28;20045;-60
2023/07/05 09:46:56;;;;;;;1.73;0.80;;;;;;;27.65;53.30;93832.47;5047349;28;20579;-60
2023/07/05 09:49:25;;;;;;;2.95;1.00;;;;;;;29.72;47.64;93829.84;5051761;28;20041;-62
2023/07/05 09:51:55;;;;;;;2.65;1.30;;;;;;;28.95;47.88;93830.66;5051396;28;20052;-59
2023/07/05 09:54:25;;;;;;;2.20;1.20;;;;;;;29.77;43.22;93828.97;5034302;28;20049;-60
2023/07/05 09:57:04;;;;;;;3.70;1.25;;;;;;;28.05;45.78;93819.41;5051425;28;20045;-59
2023/07/05 09:59:36;;;;;;;2.23;1.10;;;;;;;29.41;43.78;93817.31;5051026;28;20476;-59
2023/07/05 10:02:10;;;;;;;2.75;1.20;;;;;;;26.09;52.63;93845.97;5051754;28;20110;-60
2023/07/05 10:04:45;;;;;;;2.55;1.20;;;;;;;27.16;49.40;93844.44;5050853;28;20078;-59
2023/07/05 10:07:28;;;;;;;2.45;1.20;;;;;;;27.93;47.76;93849.06;5051625;28;20045;-59
2023/07/05 10:10:08;;;;;;;2.70;1.40;;;;;;;23.49;58.70;93836.78;5051011;28;20398;-63
2023/07/05 10:12:41;;;;;;;3.13;1.70;;;;;;;25.09;56.12;93850.59;5050802;28;20264;-60
2023/07/05 10:15:22;;;;;;;2.97;1.45;;;;;;;26.60;52.46;93850.56;5035677;28;20041;-59
2023/07/05 10:17:51;;;;;;;3.55;1.30;;;;;;;27.54;48.29;93852.31;5038444;28;20055;-60
2023/07/05 10:20:25;;;;;;;3.20;1.70;;;;;;;27.37;48.95;93858.88;5051347;28;20049;-60
2023/07/05 10:23:14;;;;;;;2.70;1.52;;;;;;;28.61;48.25;93848.91;5050691;28;20048;-60
2023/07/05 10:25:41;;;;;;;2.63;1.47;;;;;;;29.52;43.89;93856.69;5050491;28;20037;-60
2023/07/05 10:28:14;;;;;;;3.75;1.50;;;;;;;28.84;45.15;93852.16;5039940;28;20053;-60
2023/07/05 10:30:53;;;;;;;2.78;1.48;;;;;;;28.75;46.38;93866.66;5049504;28;20048;-61
2023/07/05 10:33:31;;;;;;;3.10;1.33;;;;;;;28.85;43.49;93864.97;5050949;28;20056;-60
2023/07/05 10:35:58;;;;;;;2.40;1.35;;;;;;;26.98;47.78;93870.47;5049828;28;20643;-60
2023/07/05 10:38:28;;;;;;;2.40;1.30;;;;;;;26.74;47.63;93855.03;5050679;28;20041;-61
2023/07/05 10:41:00;;;;;;;3.22;1.42;;;;;;;26.16;49.93;93860.78;5050326;28;20041;-59
2023/07/05 10:43:32;;;;;;;2.45;1.58;;;;;;;26.62;48.22;93868.47;5050871;28;20067;-59
2023/07/05 10:46:01;;;;;;;3.13;1.30;;;;;;;28.38;45.72;93859.00;5049622;28;20669;-60
2023/07/05 10:48:40;;;;;;;2.67;1.60;;;;;;;25.15;50.74;93879.44;5050304;28;20162;-59
2023/07/05 10:51:29;;;;;;;2.23;1.27;;;;;;;25.75;49.14;93876.25;5049573;28;20448;-62
2023/07/05 10:54:25;;;;;;;2.58;1.50;;;;;;;25.96;47.82;93865.50;5028653;28;20581;-59
2023/07/05 10:56:52;;;;;;;4.57;1.60;;;;;;;25.88;48.78;93872.91;5033463;28;20055;-59
2023/07/05 10:59:37;;;;;;;2.72;1.60;;;;;;;25.28;50.35;93867.72;5049834;28;20056;-59
2023/07/05 11:02:23;;;;;;;3.30;1.60;;;;;;;24.56;54.02;93870.00;5049442;28;20041;-61
2023/07/05 11:04:53;;;;;;;3.07;1.87;;;;;;;23.85;56.53;93878.47;5035748;28;20505;-62
2023/07/05 11:07:21;;;;;;;3.95;1.60;;;;;;;24.37;54.60;93877.34;5050315;28;20067;-61
2023/07/05 11:09:48;;;;;;;2.78;1.50;;;;;;;23.69;56.37;93865.91;5036974;28;20044;-61
2023/07/05 11:12:25;;;;;;;2.97;1.70;;;;;;;24.40;56.49;93873.53;5029284;28;20041;-64
2023/07/05 11:14:53;;;;;;;4.05;1.85;;;;;;;24.75;57.28;93863.88;5031601;28;20045;-64
2023/07/05 11:17:34;;;;;;;3.30;1.90;;;;;;;24.81;57.05;93865.44;5036615;28;20049;-61
2023/07/05 11:20:01;;;;;;;3.25;1.80;;;;;;;24.05;57.32;93855.09;5049447;28;21109;-63
2023/07/05 11:22:39;;;;;;;2.88;1.73;;;;;;;25.36;55.60;93865.91;5050202;28;20090;-62
2023/07/05 11:25:10;;;;;;;4.28;2.45;;;;;;;24.49;51.15;93860.03;5049414;28;21893;-61
2023/07/05 11:27:41;;;;;;;3.85;2.60;;;;;;;23.67;51.81;93860.03;5049733;28;20229;-61
2023/07/05 11:30:37;;;;;;;3.73;2.50;;;;;;;23.22;53.90;93866.19;5049657;28;20063;-61
2023/07/05 11:33:04;;;;;;;3.95;2.47;;;;;;;23.64;54.35;93858.22;5048818;28;20882;-61
2023/07/05 11:35:46;;;;;;;5.28;2.90;;;;;;;22.32;54.89;93857.06;5049520;28;20033;-61
2023/07/05 11:38:35;;;;;;;5.03;3.20;;;;;;;23.84;53.87;93855.28;5049687;28;20510;-61
2023/07/05 11:41:06;;;;;;;5.15;3.22;;;;;;;24.15;51.20;93855.63;5048863;28;20846;-61
2023/07/05 11:43:44;;;;;;;5.53;3.40;;;;;;;24.31;51.16;93855.66;5048958;28;20469;-62